createdAt,value
2022-09-13T00:00:59.603Z,98788.78
2022-09-13T00:03:27.062Z,98786.28
2022-09-13T00:05:53.493Z,98778.75
2022-09-13T00:08:20.327Z,98781.50
2022-09-13T00:10:47.254Z,98781.28
2022-09-13T00:13:15.181Z,98787.84
2022-09-13T00:15:49.703Z,98780.03
2022-09-13T00:18:17.471Z,98776.03
2022-09-13T00:20:44.126Z,98776.03
2022-09-13T00:23:11.376Z,98769.53
2022-09-13T00:25:38.544Z,98760.47
2022-09-13T00:28:05.693Z,98765.44
2022-09-13T00:30:32.207Z,98762.53
2022-09-13T00:32:59.059Z,98753.91
2022-09-13T00:35:25.503Z,98755.97
2022-09-13T00:37:52.124Z,98751.78
2022-09-13T00:40:18.709Z,98754.72
2022-09-13T00:42:45.237Z,98751.78
2022-09-13T00:45:11.600Z,98737.22
2022-09-13T00:47:38.038Z,98729.28
2022-09-13T00:50:25.981Z,98731.16
2022-09-13T00:53:23.010Z,98729.44
2022-09-13T00:56:00.236Z,98733.38
2022-09-13T00:58:34.610Z,98733.28
2022-09-13T01:01:03.424Z,98749.91
2022-09-13T01:03:33.379Z,98751.47
2022-09-13T01:06:13.310Z,98754.56
2022-09-13T01:08:42.322Z,98757.03
2022-09-13T01:11:20.758Z,98771.75
2022-09-13T01:13:47.987Z,98769.22
2022-09-13T01:16:14.536Z,98768.78
2022-09-13T01:18:41.140Z,98769.19
2022-09-13T01:21:39.088Z,98767.44
2022-09-13T01:24:35.794Z,98757.59
2022-09-13T01:27:26.932Z,98761.88
2022-09-13T01:30:13.689Z,98761.47
2022-09-13T01:32:46.238Z,98768.38
2022-09-13T01:35:23.031Z,98773.78
2022-09-13T01:38:01.376Z,98765.41
2022-09-13T01:41:13.435Z,98766.50
2022-09-13T01:43:49.087Z,98759.81
2022-09-13T01:46:45.229Z,98762.47
2022-09-13T01:49:53.380Z,98761.94
2022-09-13T01:52:41.981Z,98769.75
2022-09-13T01:55:17.578Z,98758.16
2022-09-13T01:57:48.477Z,98753.06
2022-09-13T02:00:17.763Z,98760.28
2022-09-13T02:02:54.549Z,98759.22
2022-09-13T02:05:37.738Z,98755.88
2022-09-13T02:08:09.867Z,98758.34
2022-09-13T02:10:42.518Z,98760.09
2022-09-13T02:13:17.906Z,98755.06
2022-09-13T02:15:47.935Z,98763.19
2022-09-13T02:18:28.355Z,98762.19
2022-09-13T02:21:06.348Z,98758.44
2022-09-13T02:23:41.014Z,98743.50
2022-09-13T02:26:10.875Z,98737.94
2022-09-13T02:28:42.071Z,98739.16
2022-09-13T02:31:10.281Z,98736.25
2022-09-13T02:33:44.542Z,98734.44
2022-09-13T02:36:19.818Z,98728.53
2022-09-13T02:38:56.601Z,98733.72
2022-09-13T02:41:55.951Z,98737.75
2022-09-13T02:44:22.308Z,98740.25
2022-09-13T02:47:12.085Z,98730.19
2022-09-13T02:50:01.932Z,98727.50
2022-09-13T02:52:57.233Z,98731.88
2022-09-13T02:55:49.767Z,98732.91
2022-09-13T02:58:32.063Z,98714.38
2022-09-13T03:00:58.529Z,98718.81
2022-09-13T03:03:26.196Z,98718.19
2022-09-13T03:05:53.635Z,98721.13
2022-09-13T03:08:22.051Z,98716.09
2022-09-13T03:11:00.239Z,98713.16
2022-09-13T03:13:26.945Z,98726.28
2022-09-13T03:16:30.552Z,98732.22
2022-09-13T03:19:29.027Z,98729.91
2022-09-13T03:22:10.054Z,98733.59
2022-09-13T03:24:42.493Z,98743.66
2022-09-13T03:27:23.667Z,98735.97
2022-09-13T03:30:19.748Z,98738.31
2022-09-13T03:32:51.951Z,98740.34
2022-09-13T03:35:42.196Z,98736.09
2022-09-13T03:38:17.797Z,98734.63
2022-09-13T03:40:49.895Z,98732.94
2022-09-13T03:43:22.362Z,98728.94
2022-09-13T03:45:52.788Z,98734.00
2022-09-13T03:48:20.511Z,98736.72
2022-09-13T03:50:47.551Z,98731.22
2022-09-13T03:53:19.946Z,98739.50
2022-09-13T03:55:46.431Z,98738.22
2022-09-13T03:58:15.279Z,98741.94
2022-09-13T04:00:41.641Z,98736.06
2022-09-13T04:03:09.122Z,98733.56
2022-09-13T04:05:35.601Z,98735.44
2022-09-13T04:08:05.018Z,98732.81
2022-09-13T04:10:32.712Z,98732.06
2022-09-13T04:13:02.187Z,98732.63
2022-09-13T04:15:32.071Z,98725.53
2022-09-13T04:17:58.559Z,98729.75
2022-09-13T04:20:25.710Z,98723.50
2022-09-13T04:22:56.017Z,98726.59
2022-09-13T04:25:23.357Z,98729.28
2022-09-13T04:27:55.024Z,98742.34
2022-09-13T04:30:22.172Z,98752.09
2022-09-13T04:32:48.659Z,98744.47
2022-09-13T04:35:19.512Z,98757.97
2022-09-13T04:37:46.123Z,98754.63
2022-09-13T04:40:13.649Z,98760.84
2022-09-13T04:42:40.171Z,98766.06
2022-09-13T04:45:06.926Z,98766.25
2022-09-13T04:47:33.390Z,98771.47
2022-09-13T04:49:59.748Z,98779.59
2022-09-13T04:52:26.218Z,98783.72
2022-09-13T04:54:52.546Z,98779.97
2022-09-13T04:57:19.002Z,98773.06
2022-09-13T04:59:45.303Z,98780.34
2022-09-13T05:02:11.683Z,98779.88
2022-09-13T05:04:38.417Z,98779.22
2022-09-13T05:07:04.923Z,98794.06
2022-09-13T05:09:31.313Z,98799.63
2022-09-13T05:11:57.649Z,98796.75
2022-09-13T05:14:23.981Z,98799.63
2022-09-13T05:16:50.316Z,98795.34
2022-09-13T05:19:16.730Z,98798.22
2022-09-13T05:21:43.122Z,98796.16
2022-09-13T05:24:09.564Z,98801.56
2022-09-13T05:26:36.172Z,98800.56
2022-09-13T05:29:02.549Z,98801.22
2022-09-13T05:31:34.529Z,98793.38
2022-09-13T05:34:03.414Z,98784.25
2022-09-13T05:36:30.051Z,98789.75
2022-09-13T05:39:12.587Z,98790.88
2022-09-13T05:41:44.936Z,98789.84
2022-09-13T05:44:13.626Z,98785.38
2022-09-13T05:46:40.911Z,98791.59
2022-09-13T05:49:07.267Z,98789.38
2022-09-13T05:51:33.651Z,98775.66
2022-09-13T05:54:00.121Z,98781.97
2022-09-13T05:56:29.346Z,98770.78
2022-09-13T05:58:56.373Z,98771.22
2022-09-13T06:01:25.563Z,98769.25
2022-09-13T06:03:54.071Z,98767.25
2022-09-13T06:06:21.642Z,98752.75
2022-09-13T06:08:48.437Z,98754.09
2022-09-13T06:11:15.340Z,98747.50
2022-09-13T06:13:43.222Z,98745.44
2022-09-13T06:16:12.140Z,98741.59
2022-09-13T06:18:39.422Z,98738.06
2022-09-13T06:21:08.731Z,98726.91
2022-09-13T06:23:35.292Z,98726.41
2022-09-13T06:26:07.142Z,98719.78
2022-09-13T06:28:37.288Z,98735.47
2022-09-13T06:31:09.889Z,98739.81
2022-09-13T06:33:38.138Z,98735.47
2022-09-13T06:36:07.483Z,98734.00
2022-09-13T06:38:34.209Z,98732.56
2022-09-13T06:41:02.613Z,98737.59
2022-09-13T06:43:28.935Z,98739.28
2022-09-13T06:46:03.246Z,98739.78
2022-09-13T06:48:35.199Z,98740.16
2022-09-13T06:51:03.106Z,98729.97
2022-09-13T06:53:30.326Z,98733.09
2022-09-13T06:56:01.413Z,98740.66
2022-09-13T06:58:30.281Z,98730.69
2022-09-13T07:01:13.098Z,98720.34
2022-09-13T07:03:42.183Z,98735.19
2022-09-13T07:06:22.899Z,98734.84
2022-09-13T07:08:51.470Z,98731.34
2022-09-13T07:11:19.882Z,98725.75
2022-09-13T07:13:54.609Z,98726.22
2022-09-13T07:16:24.767Z,98726.88
2022-09-13T07:18:53.330Z,98717.28
2022-09-13T07:21:20.546Z,98711.84
2022-09-13T07:23:46.903Z,98714.34
2022-09-13T07:26:13.607Z,98712.28
2022-09-13T07:28:45.219Z,98696.63
2022-09-13T07:31:16.235Z,98688.69
2022-09-13T07:33:43.977Z,98687.25
2022-09-13T07:36:11.967Z,98687.63
2022-09-13T07:38:41.201Z,98694.13
2022-09-13T07:41:11.310Z,98704.59
2022-09-13T07:43:38.101Z,98704.38
2022-09-13T07:46:10.303Z,98709.59
2022-09-13T07:48:39.216Z,98707.09
2022-09-13T07:51:08.639Z,98713.16
2022-09-13T07:53:36.570Z,98712.75
2022-09-13T07:56:17.530Z,98722.34
2022-09-13T07:58:45.919Z,98716.47
2022-09-13T08:01:40.556Z,98714.56
2022-09-13T08:04:12.629Z,98717.50
2022-09-13T08:06:40.565Z,98710.53
2022-09-13T08:09:08.705Z,98714.22
2022-09-13T08:11:38.337Z,98711.88
2022-09-13T08:14:07.105Z,98713.25
2022-09-13T08:16:34.512Z,98713.84
2022-09-13T08:19:04.249Z,98708.72
2022-09-13T08:21:37.300Z,98712.50
2022-09-13T08:24:05.652Z,98703.44
2022-09-13T08:26:34.161Z,98700.50
2022-09-13T08:29:02.296Z,98704.44
2022-09-13T08:31:29.676Z,98700.41
2022-09-13T08:33:57.603Z,98702.78
2022-09-13T08:36:28.083Z,98703.13
2022-09-13T08:38:58.780Z,98701.56
2022-09-13T08:41:40.193Z,98703.53
2022-09-13T08:44:30.075Z,98705.78
2022-09-13T08:47:26.043Z,98705.00
2022-09-13T08:50:09.161Z,98696.78
2022-09-13T08:52:59.610Z,98697.09
2022-09-13T08:55:51.096Z,98702.84
2022-09-13T08:58:42.507Z,98702.63
2022-09-13T09:01:17.143Z,98711.19
2022-09-13T09:04:21.357Z,98702.13
2022-09-13T09:06:47.913Z,98701.97
2022-09-13T09:09:21.445Z,98701.66
2022-09-13T09:11:47.761Z,98705.72
2022-09-13T09:14:29.834Z,98705.19
2022-09-13T09:17:03.984Z,98703.59
2022-09-13T09:19:37.784Z,98709.78
2022-09-13T09:22:11.164Z,98711.00
2022-09-13T09:24:40.654Z,98709.63
2022-09-13T09:27:16.612Z,98714.69
2022-09-13T09:29:44.536Z,98715.84
2022-09-13T09:32:36.168Z,98717.78
2022-09-13T09:35:02.457Z,98711.72
2022-09-13T09:37:30.603Z,98709.13
2022-09-13T09:40:03.974Z,98719.53
2022-09-13T09:42:40.734Z,98714.28
2022-09-13T09:45:23.679Z,98714.09
2022-09-13T09:47:51.595Z,98720.72
2022-09-13T09:50:22.568Z,98709.94
2022-09-13T09:53:26.942Z,98710.31
2022-09-13T09:56:05.392Z,98709.50
2022-09-13T09:58:43.346Z,98714.22
2022-09-13T10:01:25.348Z,98716.25
2022-09-13T10:04:01.281Z,98712.94
2022-09-13T10:06:30.013Z,98710.19
2022-09-13T10:08:59.920Z,98708.75
2022-09-13T10:11:45.240Z,98705.75
2022-09-13T10:14:29.127Z,98704.06
2022-09-13T10:17:05.176Z,98706.56
2022-09-13T10:19:32.655Z,98701.50
2022-09-13T10:22:05.830Z,98707.34
2022-09-13T10:24:33.190Z,98707.81
2022-09-13T10:27:00.094Z,98700.19
2022-09-13T10:29:28.519Z,98699.22
2022-09-13T10:32:03.537Z,98688.06
2022-09-13T10:34:32.882Z,98694.34
2022-09-13T10:37:04.263Z,98698.88
2022-09-13T10:39:36.159Z,98684.16
2022-09-13T10:42:06.597Z,98677.69
2022-09-13T10:44:46.782Z,98665.28
2022-09-13T10:47:27.350Z,98679.50
2022-09-13T10:49:55.743Z,98673.03
2022-09-13T10:52:44.656Z,98680.66
2022-09-13T10:55:20.122Z,98668.97
2022-09-13T10:57:48.018Z,98678.22
2022-09-13T11:00:17.644Z,98661.28
2022-09-13T11:02:59.801Z,98662.59
2022-09-13T11:05:37.296Z,98655.78
2022-09-13T11:08:11.304Z,98658.41
2022-09-13T11:10:56.563Z,98661.91
2022-09-13T11:13:34.123Z,98662.56
2022-09-13T11:16:23.803Z,98661.56
2022-09-13T11:18:51.326Z,98651.97
2022-09-13T11:21:23.607Z,98655.78
2022-09-13T11:23:56.252Z,98645.81
2022-09-13T11:26:39.076Z,98650.25
2022-09-13T11:29:08.686Z,98647.06
2022-09-13T11:31:53.887Z,98643.03
2022-09-13T11:34:43.611Z,98640.66
2022-09-13T11:37:28.432Z,98641.88
2022-09-13T11:40:21.160Z,98639.56
2022-09-13T11:43:22.765Z,98620.75
2022-09-13T11:46:02.463Z,98621.38
2022-09-13T11:49:03.113Z,98617.72
2022-09-13T11:51:58.669Z,98613.84
2022-09-13T11:54:53.896Z,98625.19
2022-09-13T11:57:31.286Z,98624.44
2022-09-13T12:00:02.478Z,98625.88
2022-09-13T12:02:45.186Z,98623.91
2022-09-13T12:05:23.405Z,98631.22
2022-09-13T12:07:59.650Z,98624.03
2022-09-13T12:10:32.793Z,98626.88
2022-09-13T12:13:02.288Z,98630.13
2022-09-13T12:15:39.843Z,98624.97
2022-09-13T12:18:22.592Z,98622.19
2022-09-13T12:20:54.910Z,98615.56
2022-09-13T12:23:31.427Z,98620.91
2022-09-13T12:26:03.703Z,98619.25
2022-09-13T12:28:55.975Z,98609.47
2022-09-13T12:31:25.754Z,98605.50
2022-09-13T12:33:53.387Z,98604.16
2022-09-13T12:36:38.083Z,98596.88
2022-09-13T12:39:31.592Z,98588.50
2022-09-13T12:42:03.703Z,98579.06
2022-09-13T12:45:08.830Z,98580.72
2022-09-13T12:47:50.591Z,98585.75
2022-09-13T12:50:48.193Z,98585.69
2022-09-13T12:53:45.126Z,98595.16
2022-09-13T12:56:40.866Z,98581.38
2022-09-13T12:59:21.034Z,98574.50
2022-09-13T13:01:50.284Z,98572.69
2022-09-13T13:04:28.783Z,98573.34
2022-09-13T13:07:08.322Z,98571.44
2022-09-13T13:09:47.854Z,98572.22
2022-09-13T13:12:36.627Z,98566.22
2022-09-13T13:15:12.211Z,98566.72
2022-09-13T13:17:38.745Z,98559.59
2022-09-13T13:20:42.820Z,98558.13
2022-09-13T13:23:34.461Z,98547.75
2022-09-13T13:26:05.505Z,98551.41
2022-09-13T13:28:51.989Z,98548.31
2022-09-13T13:31:24.843Z,98547.63
2022-09-13T13:34:00.946Z,98548.28
2022-09-13T13:36:30.115Z,98551.59
2022-09-13T13:38:57.175Z,98551.44
2022-09-13T13:41:38.322Z,98556.00
2022-09-13T13:44:17.852Z,98552.69
2022-09-13T13:46:45.010Z,98562.47
2022-09-13T13:49:30.128Z,98556.91
2022-09-13T13:52:08.746Z,98554.59
2022-09-13T13:55:02.596Z,98555.81
2022-09-13T13:57:31.786Z,98545.59
2022-09-13T14:00:04.518Z,98542.91
2022-09-13T14:02:39.610Z,98546.25
2022-09-13T14:05:14.316Z,98556.38
2022-09-13T14:07:58.023Z,98548.13
2022-09-13T14:11:00.066Z,98545.31
2022-09-13T14:13:35.081Z,98541.13
2022-09-13T14:16:36.862Z,98545.09
2022-09-13T14:19:25.455Z,98539.22
2022-09-13T14:22:21.227Z,98530.84
2022-09-13T14:24:50.308Z,98524.91
2022-09-13T14:27:25.809Z,98528.16
2022-09-13T14:29:56.091Z,98519.81
2022-09-13T14:32:25.420Z,98509.81
2022-09-13T14:34:59.252Z,98519.09
2022-09-13T14:37:31.378Z,98520.00
2022-09-13T14:40:00.860Z,98514.91
2022-09-13T14:42:41.325Z,98510.66
2022-09-13T14:45:14.809Z,98519.31
2022-09-13T14:47:53.794Z,98505.78
2022-09-13T14:50:26.346Z,98515.53
2022-09-13T14:53:07.561Z,98503.50
2022-09-13T14:55:43.513Z,98517.97
2022-09-13T14:58:24.516Z,98514.88
2022-09-13T15:01:01.183Z,98510.97
2022-09-13T15:03:28.034Z,98513.84
2022-09-13T15:05:58.021Z,98510.28
2022-09-13T15:08:33.551Z,98515.63
2022-09-13T15:11:02.000Z,98520.41
2022-09-13T15:13:29.287Z,98523.59
2022-09-13T15:15:56.091Z,98515.84
2022-09-13T15:18:36.528Z,98529.13
2022-09-13T15:21:16.783Z,98531.13
2022-09-13T15:23:50.214Z,98539.53
2022-09-13T15:26:21.251Z,98529.91
2022-09-13T15:28:53.718Z,98538.69
2022-09-13T15:31:31.651Z,98531.56
2022-09-13T15:34:17.430Z,98529.25
2022-09-13T15:36:45.945Z,98532.72
2022-09-13T15:39:18.148Z,98521.34
2022-09-13T15:41:52.370Z,98515.81
2022-09-13T15:44:19.205Z,98522.09
2022-09-13T15:46:52.800Z,98529.91
2022-09-13T15:49:22.561Z,98535.03
2022-09-13T15:51:54.910Z,98532.47
2022-09-13T15:54:25.227Z,98528.31
2022-09-13T15:56:51.790Z,98539.00
2022-09-13T15:59:20.457Z,98528.41
2022-09-13T16:01:51.653Z,98537.25
2022-09-13T16:04:19.183Z,98539.22
2022-09-13T16:06:45.910Z,98536.28
2022-09-13T16:09:19.911Z,98533.13
2022-09-13T16:11:48.078Z,98530.78
2022-09-13T16:14:15.663Z,98537.44
2022-09-13T16:16:42.123Z,98537.09
2022-09-13T16:19:20.594Z,98537.56
2022-09-13T16:21:48.023Z,98545.53
2022-09-13T16:24:14.844Z,98542.59
2022-09-13T16:26:41.850Z,98542.00
2022-09-13T16:29:09.975Z,98542.97
2022-09-13T16:31:36.566Z,98540.81
2022-09-13T16:34:03.187Z,98546.50
2022-09-13T16:36:29.612Z,98549.56
2022-09-13T16:38:56.752Z,98554.38
2022-09-13T16:41:23.652Z,98555.06
2022-09-13T16:43:50.132Z,98560.59
2022-09-13T16:46:17.975Z,98562.91
2022-09-13T16:48:44.470Z,98575.44
2022-09-13T16:51:12.658Z,98580.72
2022-09-13T16:53:41.614Z,98592.28
2022-09-13T16:56:14.366Z,98602.06
2022-09-13T16:58:43.454Z,98606.81
2022-09-13T17:01:11.544Z,98601.66
2022-09-13T17:03:38.557Z,98607.06
2022-09-13T17:06:07.993Z,98616.13
2022-09-13T17:08:36.246Z,98627.84
2022-09-13T17:11:12.126Z,98635.16
2022-09-13T17:13:39.872Z,98636.66
2022-09-13T17:16:08.323Z,98638.81
2022-09-13T17:18:34.901Z,98646.81
2022-09-13T17:21:01.259Z,98648.28
2022-09-13T17:23:28.259Z,98650.81
2022-09-13T17:25:54.719Z,98660.88
2022-09-13T17:28:21.554Z,98655.25
2022-09-13T17:30:48.130Z,98662.63
2022-09-13T17:33:14.605Z,98654.28
2022-09-13T17:35:43.468Z,98668.75
2022-09-13T17:38:09.892Z,98673.34
2022-09-13T17:40:36.253Z,98681.31
2022-09-13T17:43:03.472Z,98677.72
2022-09-13T17:45:29.953Z,98678.78
2022-09-13T17:47:59.240Z,98676.91
2022-09-13T17:50:25.761Z,98673.59
2022-09-13T17:52:52.278Z,98679.66
2022-09-13T17:55:18.991Z,98687.59
2022-09-13T17:57:49.640Z,98688.00
2022-09-13T18:00:16.739Z,98683.66
2022-09-13T18:02:46.876Z,98689.91
2022-09-13T18:05:13.990Z,98685.91
2022-09-13T18:07:40.478Z,98684.91
2022-09-13T18:10:20.240Z,98684.50
2022-09-13T18:12:52.182Z,98682.78
2022-09-13T18:15:18.769Z,98683.88
2022-09-13T18:17:45.124Z,98681.56
2022-09-13T18:20:11.636Z,98681.34
2022-09-13T18:22:38.864Z,98683.88
2022-09-13T18:25:05.756Z,98688.03
2022-09-13T18:27:33.290Z,98689.53
2022-09-13T18:30:01.016Z,98688.03
2022-09-13T18:32:27.565Z,98690.13
2022-09-13T18:34:54.189Z,98692.66
2022-09-13T18:37:20.812Z,98692.22
2022-09-13T18:39:47.293Z,98704.75
2022-09-13T18:42:13.761Z,98710.19
2022-09-13T18:44:40.420Z,98708.94
2022-09-13T18:47:08.681Z,98707.66
2022-09-13T18:49:35.100Z,98714.56
2022-09-13T18:52:01.970Z,98707.88
2022-09-13T18:54:28.327Z,98712.47
2022-09-13T18:56:55.497Z,98706.00
2022-09-13T18:59:22.176Z,98709.97
2022-09-13T19:01:48.948Z,98711.66
2022-09-13T19:04:20.836Z,98711.03
2022-09-13T19:06:49.641Z,98712.28
2022-09-13T19:09:19.866Z,98708.91
2022-09-13T19:11:49.065Z,98706.00
2022-09-13T19:14:24.634Z,98697.84
2022-09-13T19:16:52.753Z,98682.38
2022-09-13T19:19:19.395Z,98675.91
2022-09-13T19:21:46.073Z,98688.22
2022-09-13T19:24:18.018Z,98678.44
2022-09-13T19:26:46.843Z,98686.38
2022-09-13T19:29:15.452Z,98690.34
2022-09-13T19:31:47.446Z,98680.97
2022-09-13T19:34:15.216Z,98680.97
2022-09-13T19:36:43.071Z,98683.06
2022-09-13T19:39:10.064Z,98683.06
2022-09-13T19:41:37.974Z,98676.34
2022-09-13T19:44:05.132Z,98684.94
2022-09-13T19:46:34.886Z,98684.50
2022-09-13T19:49:02.555Z,98674.50
2022-09-13T19:51:34.565Z,98657.13
2022-09-13T19:54:01.774Z,98659.22
2022-09-13T19:56:32.053Z,98654.41
2022-09-13T19:58:59.348Z,98652.56
2022-09-13T20:01:29.101Z,98653.19
2022-09-13T20:04:00.679Z,98657.13
2022-09-13T20:06:29.098Z,98668.00
2022-09-13T20:08:59.939Z,98660.91
2022-09-13T20:11:28.380Z,98673.00
2022-09-13T20:13:55.906Z,98670.09
2022-09-13T20:16:26.090Z,98670.50
2022-09-13T20:18:52.829Z,98659.22
2022-09-13T20:21:19.723Z,98661.31
2022-09-13T20:23:46.926Z,98661.75
2022-09-13T20:26:16.820Z,98667.78
2022-09-13T20:28:43.553Z,98657.34
2022-09-13T20:31:10.327Z,98659.44
2022-09-13T20:33:38.942Z,98652.78
2022-09-13T20:36:10.937Z,98663.44
2022-09-13T20:38:38.373Z,98666.34
2022-09-13T20:41:10.507Z,98665.53
2022-09-13T20:43:37.467Z,98675.53
2022-09-13T20:46:05.476Z,98682.03
2022-09-13T20:48:33.291Z,98671.38
2022-09-13T20:51:20.780Z,98670.56
2022-09-13T20:53:47.259Z,98673.03
2022-09-13T20:56:18.437Z,98673.69
2022-09-13T20:58:45.887Z,98668.03
2022-09-13T21:01:19.980Z,98659.03
2022-09-13T21:03:49.167Z,98658.22
2022-09-13T21:06:16.885Z,98650.47
2022-09-13T21:08:44.026Z,98659.44
2022-09-13T21:11:22.083Z,98662.63
2022-09-13T21:14:01.497Z,98641.72
2022-09-13T21:16:34.517Z,98640.03
2022-09-13T21:19:01.412Z,98640.25
2022-09-13T21:21:39.815Z,98641.72
2022-09-13T21:24:09.732Z,98632.75
2022-09-13T21:26:39.571Z,98631.69
2022-09-13T21:29:06.595Z,98631.69
2022-09-13T21:31:33.512Z,98632.13
2022-09-13T21:34:04.061Z,98634.44
2022-09-13T21:36:32.394Z,98631.91
2022-09-13T21:38:58.966Z,98624.59
2022-09-13T21:41:26.770Z,98627.09
2022-09-13T21:43:54.448Z,98620.66
2022-09-13T21:46:26.502Z,98621.25
2022-09-13T21:48:58.421Z,98622.09
2022-09-13T21:51:33.985Z,98622.09
2022-09-13T21:54:02.450Z,98620.41
2022-09-13T21:56:30.823Z,98619.78
2022-09-13T21:59:00.135Z,98614.97
2022-09-13T22:01:29.961Z,98617.28
2022-09-13T22:03:57.230Z,98616.00
2022-09-13T22:06:24.310Z,98616.84
2022-09-13T22:08:52.929Z,98611.22
2022-09-13T22:11:31.374Z,98608.69
2022-09-13T22:13:59.057Z,98602.22
2022-09-13T22:16:26.619Z,98594.91
2022-09-13T22:18:55.530Z,98594.28
2022-09-13T22:21:25.069Z,98595.13
2022-09-13T22:23:52.314Z,98592.84
2022-09-13T22:26:22.483Z,98584.91
2022-09-13T22:28:49.885Z,98593.47
2022-09-13T22:31:22.281Z,98591.56
2022-09-13T22:33:49.399Z,98591.16
2022-09-13T22:36:17.522Z,98592.00
2022-09-13T22:38:48.151Z,98584.09
2022-09-13T22:41:22.672Z,98584.91
2022-09-13T22:43:49.540Z,98582.81
2022-09-13T22:46:21.016Z,98566.53
2022-09-13T22:48:48.367Z,98584.50
2022-09-13T22:51:17.697Z,98577.78
2022-09-13T22:53:46.429Z,98574.88
2022-09-13T22:56:25.033Z,98573.22
2022-09-13T22:58:56.658Z,98562.78
2022-09-13T23:01:24.910Z,98564.88
2022-09-13T23:03:52.504Z,98571.13
2022-09-13T23:06:20.976Z,98573.84
2022-09-13T23:08:49.642Z,98575.72
2022-09-13T23:11:19.444Z,98576.56
2022-09-13T23:13:47.786Z,98581.56
2022-09-13T23:16:17.745Z,98582.81
2022-09-13T23:18:44.528Z,98577.19
2022-09-13T23:21:11.111Z,98581.38
2022-09-13T23:23:37.900Z,98573.22
2022-09-13T23:26:14.206Z,98578.22
2022-09-13T23:28:41.150Z,98581.56
2022-09-13T23:31:11.607Z,98569.03
2022-09-13T23:33:42.757Z,98566.53
2022-09-13T23:36:11.231Z,98573.63
2022-09-13T23:38:38.210Z,98579.06
2022-09-13T23:41:04.846Z,98571.94
2022-09-13T23:43:31.345Z,98579.88
2022-09-13T23:45:57.878Z,98579.69
2022-09-13T23:48:25.094Z,98578.66
2022-09-13T23:50:59.330Z,98577.78
2022-09-13T23:53:26.296Z,98577.59
2022-09-13T23:55:52.841Z,98581.78
2022-09-13T23:58:19.230Z,98576.13
